Time;durP1;ratioP1;P1;durP2;ratioP2;P2;SDS_P1;SDS_P2;PMS_P1;PMS_P2;Temp;Humidity;BMP_temperature;BMP_pressure;BME280_temperature;BME280_humidity;BME280_pressure;Samples;Min_cycle;Max_cycle;Signal;HPM_P1;HPM_P2
2023/12/25 05:02:39;;;;;;;0.90;0.80;;;11.80;97.30;;;;;;5031370;23;20534;-88
2023/12/25 05:05:05;;;;;;;1.00;0.90;;;11.90;97.30;;;;;;4953327;28;20445;-87
2023/12/25 05:07:31;;;;;;;0.90;0.80;;;11.80;97.30;;;;;;4957124;28;20426;-88
2023/12/25 05:09:57;;;;;;;1.00;0.90;;;11.70;97.30;;;;;;4979293;28;20641;-88
2023/12/25 05:12:22;;;;;;;1.27;1.00;;;11.50;97.30;;;;;;4956321;28;20215;-88
2023/12/25 05:14:48;;;;;;;1.53;1.20;;;11.50;97.30;;;;;;4964973;28;20200;-88
2023/12/25 05:17:13;;;;;;;1.00;0.90;;;11.50;97.30;;;;;;4948500;28;20191;-88
2023/12/25 05:19:38;;;;;;;0.90;0.80;;;11.50;97.30;;;;;;4950555;28;20190;-88
2023/12/25 05:22:05;;;;;;;1.33;1.10;;;11.50;97.30;;;;;;4954015;28;20214;-87
2023/12/25 05:24:31;;;;;;;1.00;0.90;;;11.50;97.30;;;;;;4959466;28;20194;-88
2023/12/25 05:26:56;;;;;;;1.67;0.90;;;11.50;97.30;;;;;;4962042;28;20445;-88
2023/12/25 05:29:22;;;;;;;0.90;0.80;;;11.60;97.30;;;;;;4961343;28;20262;-86
2023/12/25 05:31:47;;;;;;;1.27;1.17;;;11.60;97.30;;;;;;4954682;28;20203;-89
2023/12/25 05:34:13;;;;;;;0.90;0.80;;;11.60;97.30;;;;;;4957181;28;20198;-88
2023/12/25 05:36:39;;;;;;;1.00;0.90;;;11.60;97.30;;;;;;4963823;28;20279;-88
2023/12/25 05:39:04;;;;;;;1.10;1.00;;;11.60;97.30;;;;;;4957400;28;20187;-87
2023/12/25 05:41:30;;;;;;;1.17;1.07;;;11.60;97.30;;;;;;4956749;28;20832;-88
2023/12/25 05:43:55;;;;;;;1.10;1.00;;;11.70;97.30;;;;;;4969386;28;20202;-87
2023/12/25 05:46:21;;;;;;;6.47;1.67;;;11.70;97.30;;;;;;4956918;28;20183;-87
2023/12/25 05:48:46;;;;;;;4.30;1.47;;;11.70;97.30;;;;;;4959127;28;20840;-87
2023/12/25 05:51:12;;;;;;;0.90;0.80;;;11.60;97.30;;;;;;4962212;28;20316;-88
2023/12/25 05:53:37;;;;;;;1.67;0.90;;;11.70;97.30;;;;;;4957096;28;20195;-88
2023/12/25 05:56:03;;;;;;;0.80;0.70;;;11.70;97.30;;;;;;4956829;28;20187;-88
2023/12/25 05:58:29;;;;;;;0.90;0.80;;;11.70;97.30;;;;;;4957871;28;20191;-88
2023/12/25 06:01:21;;;;;;;1.70;0.90;;;11.80;97.30;;;;;;4956320;28;20473;-87
2023/12/25 06:03:47;;;;;;;0.83;0.80;;;11.80;97.30;;;;;;4930547;29;20204;-87
2023/12/25 06:06:13;;;;;;;1.27;1.20;;;11.80;97.30;;;;;;4939445;29;20797;-87
2023/12/25 06:08:38;;;;;;;0.90;0.80;;;11.80;97.30;;;;;;4939781;29;20435;-87
2023/12/25 06:11:04;;;;;;;1.00;0.90;;;11.80;97.30;;;;;;4941025;29;20203;-87
2023/12/25 06:13:29;;;;;;;0.90;0.80;;;11.80;97.30;;;;;;4940114;28;20619;-87
2023/12/25 06:15:55;;;;;;;0.90;0.80;;;11.80;97.30;;;;;;4941344;28;20221;-89
2023/12/25 06:18:20;;;;;;;1.00;0.90;;;11.80;97.30;;;;;;4939036;29;20184;-87
2023/12/25 06:20:46;;;;;;;1.10;1.00;;;11.80;97.30;;;;;;4935559;29;20678;-87
2023/12/25 06:23:12;;;;;;;0.90;0.80;;;11.90;97.30;;;;;;4941134;29;20231;-88
2023/12/25 06:25:37;;;;;;;0.90;0.80;;;11.90;97.30;;;;;;4938422;29;20436;-87
2023/12/25 06:28:04;;;;;;;0.90;0.80;;;11.90;97.30;;;;;;4941376;29;20239;-87
2023/12/25 06:30:29;;;;;;;0.90;0.80;;;11.90;97.30;;;;;;4936435;29;20187;-88
2023/12/25 06:32:55;;;;;;;0.90;0.80;;;11.90;97.30;;;;;;4936769;28;20467;-88
2023/12/25 06:35:21;;;;;;;1.00;0.90;;;11.90;97.30;;;;;;4944134;29;20190;-88
2023/12/25 06:37:47;;;;;;;0.93;0.83;;;;;;;;;;4949627;28;20443;-87
2023/12/25 06:40:13;;;;;;;0.87;0.77;;;11.80;97.30;;;;;;4945707;28;20419;-88
2023/12/25 06:42:38;;;;;;;0.90;0.80;;;11.60;97.30;;;;;;4946797;28;20474;-87
2023/12/25 06:45:07;;;;;;;0.90;0.80;;;11.40;97.30;;;;;;4938909;29;20191;-89
2023/12/25 06:47:34;;;;;;;0.90;0.80;;;11.30;97.30;;;;;;4939925;29;20276;-88
2023/12/25 06:49:59;;;;;;;0.93;0.83;;;11.20;97.30;;;;;;4947469;28;20416;-88
2023/12/25 06:52:25;;;;;;;1.10;1.00;;;11.10;97.30;;;;;;4946877;29;20462;-89
2023/12/25 06:54:51;;;;;;;0.90;0.80;;;11.00;97.30;;;;;;4936395;28;20218;-88
2023/12/25 06:57:16;;;;;;;0.90;0.80;;;11.00;97.30;;;;;;4936847;29;20192;-88
2023/12/25 06:59:43;;;;;;;0.80;0.70;;;11.00;97.30;;;;;;4947431;29;20291;-89
2023/12/25 07:02:08;;;;;;;1.23;0.90;;;11.00;97.30;;;;;;4950006;28;20693;-91
2023/12/25 07:04:34;;;;;;;0.90;0.80;;;11.00;97.30;;;;;;4965592;28;20434;-89
2023/12/25 07:07:00;;;;;;;0.90;0.80;;;11.00;97.30;;;;;;4955094;28;20198;-89
2023/12/25 07:09:26;;;;;;;0.90;0.80;;;11.00;97.30;;;;;;4955285;28;20439;-88
2023/12/25 07:11:51;;;;;;;0.93;0.83;;;11.00;97.30;;;;;;4963862;28;20225;-89
2023/12/25 07:14:17;;;;;;;1.27;1.17;;;11.00;97.30;;;;;;4957984;28;20466;-88
2023/12/25 07:16:43;;;;;;;0.97;0.87;;;10.90;97.30;;;;;;4958360;28;20614;-89
2023/12/25 07:19:08;;;;;;;1.00;0.90;;;10.90;97.30;;;;;;4963371;28;20179;-89
2023/12/25 07:21:34;;;;;;;0.97;0.87;;;10.90;97.30;;;;;;4951142;28;20194;-88
2023/12/25 07:24:00;;;;;;;1.00;0.90;;;10.80;97.30;;;;;;4960975;28;20207;-88
2023/12/25 07:26:25;;;;;;;0.90;0.80;;;10.80;97.30;;;;;;4956799;28;20203;-88
2023/12/25 07:28:51;;;;;;;1.00;0.90;;;10.70;97.30;;;;;;4960017;28;20205;-88
2023/12/25 07:31:16;;;;;;;0.80;0.70;;;10.70;97.30;;;;;;4959504;28;20214;-89
2023/12/25 07:33:42;;;;;;;1.10;1.00;;;10.70;97.30;;;;;;4962848;28;20237;-89
2023/12/25 07:36:07;;;;;;;0.90;0.80;;;10.60;97.30;;;;;;4957724;28;20179;-88
2023/12/25 07:38:34;;;;;;;1.20;1.17;;;10.60;97.30;;;;;;4951181;28;20196;-88
2023/12/25 07:41:00;;;;;;;0.90;0.80;;;10.60;97.30;;;;;;4956757;28;20207;-87
2023/12/25 07:43:26;;;;;;;0.90;0.80;;;10.50;97.30;;;;;;4954850;28;20467;-87
2023/12/25 07:45:52;;;;;;;1.33;1.00;;;10.50;97.30;;;;;;4957500;28;20214;-87
2023/12/25 07:48:17;;;;;;;0.87;0.77;;;10.50;97.30;;;;;;4963440;28;20434;-89
2023/12/25 07:50:43;;;;;;;0.90;0.80;;;10.50;97.30;;;;;;4957530;28;20832;-89
2023/12/25 07:53:09;;;;;;;1.00;0.90;;;10.50;97.30;;;;;;4956167;28;20275;-89
2023/12/25 07:55:37;;;;;;;0.90;0.80;;;10.50;97.30;;;;;;4953516;28;20226;-89
2023/12/25 07:58:02;;;;;;;1.00;0.90;;;10.50;97.30;;;;;;4951270;28;20728;-89
2023/12/25 08:00:28;;;;;;;0.90;0.80;;;10.40;97.30;;;;;;4957433;28;20434;-88
2023/12/25 08:02:54;;;;;;;0.87;0.77;;;10.40;97.30;;;;;;4953985;28;20561;-88
2023/12/25 08:05:20;;;;;;;0.90;0.80;;;10.40;97.30;;;;;;4954140;28;20244;-89
2023/12/25 08:07:45;;;;;;;0.97;0.87;;;10.40;97.30;;;;;;4955807;28;21024;-88
2023/12/25 08:10:14;;;;;;;1.00;0.90;;;10.40;97.30;;;;;;4952264;28;20192;-90
2023/12/25 08:12:43;;;;;;;0.90;0.80;;;10.30;97.30;;;;;;4959517;28;20214;-91
2023/12/25 08:15:11;;;;;;;1.00;0.90;;;10.30;97.30;;;;;;4965083;28;20422;-91
2023/12/25 08:17:37;;;;;;;0.93;0.83;;;10.30;97.30;;;;;;4963599;28;20541;-90
2023/12/25 08:20:02;;;;;;;0.90;0.80;;;10.30;97.30;;;;;;4958279;28;20516;-90
2023/12/25 08:22:28;;;;;;;0.90;0.80;;;10.20;97.30;;;;;;4960349;28;20486;-89
2023/12/25 08:24:54;;;;;;;1.00;0.90;;;10.20;97.30;;;;;;4958976;28;20460;-90
2023/12/25 08:27:19;;;;;;;0.90;0.80;;;10.20;97.30;;;;;;4959596;28;20179;-90
2023/12/25 08:29:45;;;;;;;1.00;0.90;;;10.20;97.30;;;;;;4955055;28;20234;-90
2023/12/25 08:32:12;;;;;;;1.20;1.10;;;10.10;97.30;;;;;;4959090;28;20689;-90
2023/12/25 08:34:38;;;;;;;0.90;0.80;;;10.10;97.30;;;;;;4952880;28;20202;-90
2023/12/25 08:37:03;;;;;;;1.07;0.97;;;10.10;97.30;;;;;;4953015;28;20421;-90
2023/12/25 08:39:29;;;;;;;0.90;0.80;;;10.10;97.30;;;;;;4952879;28;20427;-89
2023/12/25 08:41:56;;;;;;;0.93;0.83;;;10.10;97.30;;;;;;4954584;28;20225;-90
2023/12/25 08:44:23;;;;;;;0.80;0.70;;;10.10;97.30;;;;;;4965964;28;20222;-90
2023/12/25 08:46:48;;;;;;;0.90;0.80;;;10.10;97.30;;;;;;4967256;28;20418;-90
2023/12/25 08:49:14;;;;;;;1.00;0.90;;;10.10;97.30;;;;;;4956939;28;20540;-91
2023/12/25 08:51:40;;;;;;;1.10;1.00;;;10.10;97.30;;;;;;4955520;28;20861;-90
2023/12/25 08:54:07;;;;;;;1.03;1.00;;;10.20;97.30;;;;;;4950606;28;20290;-89
2023/12/25 08:56:32;;;;;;;0.90;0.80;;;10.20;97.30;;;;;;4965697;28;20437;-91
2023/12/25 08:59:00;;;;;;;1.00;0.90;;;10.20;97.30;;;;;;4957279;28;20442;-90
2023/12/25 09:01:26;;;;;;;1.40;1.30;;;10.30;97.30;;;;;;4961628;28;20242;-89
2023/12/25 09:03:52;;;;;;;1.10;1.00;;;10.30;97.30;;;;;;4957361;28;20553;-89
2023/12/25 09:06:17;;;;;;;1.10;1.00;;;10.30;97.30;;;;;;4951180;28;20518;-89
2023/12/25 09:08:43;;;;;;;0.90;0.80;;;10.30;97.30;;;;;;4952276;28;20174;-89
2023/12/25 09:11:09;;;;;;;0.90;0.80;;;10.30;97.30;;;;;;4948793;28;20202;-90
2023/12/25 09:13:35;;;;;;;0.87;0.77;;;10.30;97.30;;;;;;4942626;28;20521;-90
2023/12/25 09:16:01;;;;;;;1.00;0.90;;;10.30;97.30;;;;;;4958479;28;20501;-89
2023/12/25 09:18:27;;;;;;;0.90;0.80;;;10.30;97.30;;;;;;4956544;28;20196;-90
2023/12/25 09:20:53;;;;;;;1.10;1.00;;;10.30;97.30;;;;;;4960389;28;20685;-89
2023/12/25 09:23:18;;;;;;;0.80;0.70;;;10.30;97.30;;;;;;4950847;28;20466;-91
2023/12/25 09:25:44;;;;;;;1.00;0.90;;;10.40;97.30;;;;;;4952132;28;20178;-90
2023/12/25 09:28:11;;;;;;;1.10;1.00;;;10.40;97.30;;;;;;4952539;28;20182;-90
2023/12/25 09:30:36;;;;;;;1.27;1.20;;;10.50;97.30;;;;;;4957459;28;20247;-92
2023/12/25 09:33:02;;;;;;;0.90;0.80;;;10.50;97.30;;;;;;4951467;28;20418;-90
2023/12/25 09:35:27;;;;;;;0.87;0.77;;;10.50;97.30;;;;;;4960597;28;20179;-90
2023/12/25 09:37:53;;;;;;;1.00;0.90;;;10.50;97.30;;;;;;4957967;28;20220;-90
2023/12/25 09:40:18;;;;;;;1.00;0.90;;;10.50;97.30;;;;;;4959415;28;20178;-90
2023/12/25 09:42:45;;;;;;;0.97;0.87;;;10.50;97.30;;;;;;4965816;28;20202;-90
2023/12/25 09:45:12;;;;;;;0.90;0.80;;;10.50;97.30;;;;;;4952759;28;20263;-89
2023/12/25 09:47:40;;;;;;;0.80;0.70;;;10.50;97.30;;;;;;4952769;28;20418;-91
2023/12/25 09:50:06;;;;;;;2.87;2.03;;;10.40;97.30;;;;;;4960098;28;20462;-92
2023/12/25 09:52:32;;;;;;;0.90;0.80;;;10.40;97.30;;;;;;4960328;28;20442;-89
2023/12/25 09:54:57;;;;;;;0.90;0.80;;;10.40;97.30;;;;;;4955425;28;20458;-90
2023/12/25 09:57:25;;;;;;;0.90;0.80;;;10.40;97.30;;;;;;4955654;28;20199;-91
2023/12/25 09:59:52;;;;;;;1.47;1.30;;;10.40;97.30;;;;;;4953437;28;20198;-90
2023/12/25 10:02:21;;;;;;;1.30;1.20;;;10.40;97.30;;;;;;4953692;28;20479;-90
2023/12/25 10:04:49;;;;;;;1.20;1.10;;;10.40;97.30;;;;;;4957172;28;20435;-90
2023/12/25 10:07:14;;;;;;;1.00;0.90;;;10.40;97.30;;;;;;4955624;28;20422;-90
2023/12/25 10:09:40;;;;;;;0.90;0.80;;;10.40;97.30;;;;;;4955834;28;20438;-92
2023/12/25 10:12:06;;;;;;;0.90;0.80;;;10.30;97.30;;;;;;4955254;28;20209;-91
2023/12/25 10:14:32;;;;;;;0.90;0.80;;;10.30;97.30;;;;;;4955714;28;20795;-91
2023/12/25 10:16:58;;;;;;;0.90;0.80;;;10.30;97.30;;;;;;4955561;28;20411;-92
2023/12/25 10:19:24;;;;;;;0.90;0.80;;;10.40;97.30;;;;;;4955399;28;20185;-92
2023/12/25 10:21:52;;;;;;;0.83;0.80;;;10.30;97.30;;;;;;4955525;28;20439;-91
2023/12/25 10:24:18;;;;;;;0.90;0.80;;;10.30;97.30;;;;;;4955331;28;20454;-91
2023/12/25 10:26:45;;;;;;;0.80;0.70;;;10.30;97.30;;;;;;4955369;28;20963;-91
2023/12/25 10:29:11;;;;;;;1.00;0.90;;;10.30;97.30;;;;;;4953804;28;20190;-91
2023/12/25 10:31:38;;;;;;;0.93;0.83;;;10.30;97.30;;;;;;4956137;28;20891;-91
2023/12/25 10:34:04;;;;;;;0.90;0.80;;;10.30;97.30;;;;;;4951654;28;20473;-92
2023/12/25 10:36:30;;;;;;;0.90;0.80;;;10.30;97.30;;;;;;4955035;28;20851;-91
2023/12/25 10:38:56;;;;;;;0.90;0.80;;;10.30;97.30;;;;;;4954600;28;20431;-92
2023/12/25 10:41:24;;;;;;;1.00;0.90;;;10.30;97.30;;;;;;4954983;28;20493;-91
2023/12/25 10:44:02;;;;;;;0.90;0.80;;;10.30;97.30;;;;;;4953934;28;20213;-90
2023/12/25 10:46:37;;;;;;;1.30;1.20;;;10.30;97.30;;;;;;4957837;28;20469;-90
2023/12/25 10:49:04;;;;;;;1.00;0.90;;;10.30;97.30;;;;;;4954260;28;20418;-91
2023/12/25 10:51:33;;;;;;;0.80;0.70;;;10.30;97.30;;;;;;4954533;28;20960;-92
2023/12/25 10:54:03;;;;;;;1.07;1.00;;;10.40;97.30;;;;;;4954324;28;20430;-90
2023/12/25 10:56:35;;;;;;;0.90;0.80;;;10.40;97.30;;;;;;4954846;28;20431;-92
2023/12/25 10:59:24;;;;;;;0.90;0.80;;;10.40;97.30;;;;;;4951581;28;20443;-91
2023/12/25 11:01:50;;;;;;;0.90;0.80;;;10.30;97.30;;;;;;4946565;28;20986;-90
2023/12/25 11:04:17;;;;;;;1.00;0.90;;;10.30;97.30;;;;;;4951095;28;20497;-89
2023/12/25 11:06:44;;;;;;;0.90;0.80;;;10.30;97.30;;;;;;4954559;28;20435;-89
2023/12/25 11:09:19;;;;;;;0.90;0.80;;;10.30;97.30;;;;;;4948437;28;20423;-88
2023/12/25 11:11:45;;;;;;;1.17;1.07;;;10.30;97.30;;;;;;4954559;28;20447;-87
2023/12/25 11:14:11;;;;;;;0.90;0.80;;;;;;;;;;4951615;28;20429;-88
2023/12/25 11:16:40;;;;;;;1.00;0.90;;;10.30;97.30;;;;;;4958681;28;20218;-88
2023/12/25 11:19:06;;;;;;;0.90;0.80;;;10.30;97.30;;;;;;4955029;28;21023;-91
2023/12/25 11:21:33;;;;;;;0.80;0.70;;;10.30;97.30;;;;;;4960850;28;20482;-87
2023/12/25 11:24:00;;;;;;;0.90;0.80;;;10.30;97.30;;;;;;4949687;28;21107;-85
2023/12/25 11:26:30;;;;;;;0.90;0.80;;;10.40;97.30;;;;;;4958163;28;20881;-87
2023/12/25 11:29:12;;;;;;;0.93;0.83;;;10.30;97.30;;;;;;4953394;28;20454;-89
2023/12/25 11:31:45;;;;;;;0.80;0.70;;;10.30;97.30;;;;;;4962847;28;20534;-86
2023/12/25 11:34:24;;;;;;;1.00;0.90;;;10.30;97.30;;;;;;4963065;28;20517;-87
2023/12/25 11:36:55;;;;;;;0.80;0.70;;;10.30;97.30;;;;;;4970652;28;20426;-87
2023/12/25 11:39:23;;;;;;;0.90;0.80;;;10.30;97.30;;;;;;4969144;28;20786;-88
2023/12/25 11:41:49;;;;;;;0.90;0.80;;;10.30;97.30;;;;;;4967018;28;20445;-87
2023/12/25 11:44:17;;;;;;;0.90;0.80;;;10.30;97.30;;;;;;4961711;28;20507;-86
2023/12/25 11:46:46;;;;;;;0.90;0.80;;;10.30;97.30;;;;;;4968737;28;20199;-87
2023/12/25 11:49:14;;;;;;;1.00;0.90;;;10.30;97.30;;;;;;4970320;28;20442;-86
2023/12/25 11:51:46;;;;;;;0.90;0.80;;;10.30;97.30;;;;;;4961175;28;20440;-88
2023/12/25 11:54:11;;;;;;;0.90;0.80;;;10.30;97.30;;;;;;4973467;28;20434;-87
2023/12/25 11:56:38;;;;;;;2.60;0.87;;;10.30;97.30;;;;;;4965855;28;20418;-86
2023/12/25 11:59:04;;;;;;;0.90;0.80;;;;;;;;;;4956129;28;20187;-85
2023/12/25 12:01:30;;;;;;;1.00;0.90;;;10.30;97.30;;;;;;4956798;28;20462;-89
2023/12/25 12:03:55;;;;;;;1.10;1.00;;;10.30;97.30;;;;;;4954945;28;20474;-89
2023/12/25 12:06:22;;;;;;;1.27;1.17;;;;;;;;;;4952492;28;20179;-91
2023/12/25 12:08:48;;;;;;;0.90;0.80;;;10.30;97.30;;;;;;4952881;28;20226;-90
2023/12/25 12:11:14;;;;;;;1.00;0.93;;;10.30;97.30;;;;;;4966135;28;20541;-88
2023/12/25 12:13:41;;;;;;;1.73;0.90;;;10.30;97.30;;;;;;4953061;28;20194;-90
2023/12/25 12:16:07;;;;;;;3.23;1.20;;;10.20;97.30;;;;;;4958022;28;20439;-89
2023/12/25 12:18:34;;;;;;;1.10;1.00;;;10.30;97.30;;;;;;4951607;28;20850;-89
2023/12/25 12:21:00;;;;;;;1.00;0.90;;;10.20;97.30;;;;;;4966180;28;20811;-89
2023/12/25 12:23:31;;;;;;;0.90;0.80;;;10.20;97.30;;;;;;4953708;28;20466;-89
2023/12/25 12:26:00;;;;;;;1.10;1.00;;;10.30;97.30;;;;;;4955984;28;20184;-88
2023/12/25 12:28:29;;;;;;;1.00;0.90;;;10.30;97.30;;;;;;4967969;28;20422;-88
2023/12/25 12:30:54;;;;;;;0.90;0.80;;;10.30;97.30;;;;;;4958987;28;20541;-87
2023/12/25 12:33:20;;;;;;;1.63;1.33;;;10.30;97.30;;;;;;4958984;28;21019;-87
2023/12/25 12:35:48;;;;;;;0.90;0.80;;;10.30;97.30;;;;;;4958578;28;20191;-90
2023/12/25 12:38:14;;;;;;;1.00;0.90;;;10.30;97.30;;;;;;4957475;28;20214;-87
2023/12/25 12:40:39;;;;;;;0.80;0.70;;;10.30;97.30;;;;;;4955007;28;20434;-87
2023/12/25 12:43:05;;;;;;;0.90;0.80;;;10.30;97.30;;;;;;4950241;28;21036;-88
2023/12/25 12:45:31;;;;;;;0.90;0.80;;;10.30;97.30;;;;;;4958658;28;20179;-87
2023/12/25 12:47:56;;;;;;;0.90;0.80;;;10.30;97.30;;;;;;4960101;28;20241;-88
2023/12/25 12:50:22;;;;;;;1.00;0.90;;;10.30;97.30;;;;;;4958429;28;20206;-87
2023/12/25 12:52:48;;;;;;;2.20;1.97;;;10.30;97.30;;;;;;4966133;28;20233;-88
2023/12/25 12:55:14;;;;;;;1.47;0.90;;;10.30;97.30;;;;;;4952854;28;20179;-87
2023/12/25 12:57:40;;;;;;;0.90;0.80;;;10.30;97.30;;;;;;4948826;28;20430;-87
2023/12/25 13:00:06;;;;;;;0.90;0.80;;;10.30;97.30;;;;;;4960441;28;20417;-88
2023/12/25 13:02:32;;;;;;;0.87;0.77;;;10.30;97.30;;;;;;4956327;28;20264;-88
2023/12/25 13:04:57;;;;;;;0.90;0.80;;;10.30;97.30;;;;;;4955399;28;20462;-85
2023/12/25 13:07:23;;;;;;;1.00;0.90;;;10.30;97.30;;;;;;4958420;28;20182;-86
2023/12/25 13:09:48;;;;;;;0.93;0.83;;;10.30;97.30;;;;;;4956424;28;20218;-85
2023/12/25 13:12:14;;;;;;;0.90;0.80;;;10.30;97.30;;;;;;4952106;28;20210;-84
2023/12/25 13:14:39;;;;;;;1.13;1.03;;;10.30;97.30;;;;;;4945630;28;20186;-86
2023/12/25 13:17:05;;;;;;;0.90;0.80;;;10.30;97.30;;;;;;4957673;28;20199;-86
2023/12/25 13:19:30;;;;;;;1.03;0.93;;;10.30;97.30;;;;;;4951699;28;20220;-86
2023/12/25 13:21:56;;;;;;;0.80;0.70;;;10.30;97.30;;;;;;4953096;28;20200;-88
2023/12/25 13:24:21;;;;;;;0.90;0.80;;;10.30;97.30;;;;;;4961620;28;20185;-86
2023/12/25 13:26:48;;;;;;;1.23;0.90;;;;;;;;;;4958388;28;20195;-87
2023/12/25 13:29:14;;;;;;;1.20;1.10;;;10.20;97.30;;;;;;4952643;28;20211;-89
2023/12/25 13:31:39;;;;;;;0.90;0.80;;;10.20;97.30;;;;;;4953448;28;20996;-88
2023/12/25 13:34:05;;;;;;;0.90;0.80;;;;;;;;;;4949988;28;20707;-88
2023/12/25 13:36:31;;;;;;;1.07;0.97;;;10.30;97.30;;;;;;4952870;28;20274;-88
2023/12/25 13:38:56;;;;;;;0.87;0.77;;;10.30;97.30;;;;;;4952128;28;20523;-88
2023/12/25 13:41:23;;;;;;;0.90;0.80;;;10.20;97.30;;;;;;4950809;28;20764;-88
2023/12/25 13:43:48;;;;;;;0.90;0.80;;;10.20;97.30;;;;;;4951429;28;20314;-88
2023/12/25 13:46:14;;;;;;;1.10;1.00;;;10.20;97.30;;;;;;4950077;28;20997;-88
2023/12/25 13:48:41;;;;;;;1.13;1.03;;;10.20;97.30;;;;;;4951678;28;20225;-88
2023/12/25 13:51:06;;;;;;;0.67;0.60;;;10.20;97.30;;;;;;4947412;28;20295;-88
2023/12/25 13:53:32;;;;;;;1.57;1.47;;;10.20;97.30;;;;;;4946567;28;20686;-88
2023/12/25 13:55:57;;;;;;;2.07;1.50;;;10.20;97.30;;;;;;4947783;28;20190;-89
2023/12/25 14:00:49;;;;;;;0.90;0.80;;;10.20;97.30;;;;;;5013416;23;20245;-88
2023/12/25 14:03:14;;;;;;;1.00;0.90;;;10.20;97.30;;;;;;4995333;28;20579;-89
2023/12/25 14:05:40;;;;;;;1.10;1.00;;;10.20;97.30;;;;;;4997863;28;20243;-90
2023/12/25 14:08:06;;;;;;;0.90;0.80;;;10.20;97.30;;;;;;5001195;28;20193;-89
2023/12/25 14:10:33;;;;;;;1.20;1.10;;;10.20;97.30;;;;;;4992297;28;20340;-88
2023/12/25 14:12:59;;;;;;;1.20;1.10;;;10.20;97.30;;;;;;4989501;28;20244;-89
2023/12/25 14:15:26;;;;;;;0.90;0.80;;;10.20;97.30;;;;;;4980062;28;20449;-90
2023/12/25 14:17:52;;;;;;;0.90;0.80;;;10.30;97.30;;;;;;4988343;28;20178;-92
2023/12/25 14:20:18;;;;;;;1.00;0.90;;;10.30;97.30;;;;;;4991187;28;20452;-91
2023/12/25 14:22:44;;;;;;;1.20;1.00;;;10.30;97.30;;;;;;4991160;28;20198;-89
2023/12/25 14:25:10;;;;;;;0.90;0.80;;;10.30;97.30;;;;;;5006669;28;20447;-90
2023/12/25 14:27:36;;;;;;;1.00;0.90;;;10.20;97.30;;;;;;4998185;28;20712;-90
2023/12/25 14:30:03;;;;;;;1.00;0.90;;;10.20;97.30;;;;;;4995408;28;20532;-87
2023/12/25 14:32:29;;;;;;;1.00;0.90;;;10.20;97.30;;;;;;4993529;28;20268;-89
2023/12/25 14:34:55;;;;;;;0.90;0.80;;;10.20;97.30;;;;;;4993808;28;20437;-89
2023/12/25 14:37:20;;;;;;;1.20;1.10;;;10.20;97.30;;;;;;4994107;28;20448;-89
2023/12/25 14:39:46;;;;;;;1.00;0.90;;;10.20;97.30;;;;;;4993901;28;20770;-89
2023/12/25 14:42:12;;;;;;;1.00;0.90;;;10.20;97.30;;;;;;4993785;28;20178;-91
2023/12/25 14:44:38;;;;;;;1.23;1.13;;;10.20;97.30;;;;;;4995296;28;20177;-89
2023/12/25 14:47:04;;;;;;;3.17;1.53;;;10.10;97.30;;;;;;5008448;28;20421;-88
2023/12/25 14:49:29;;;;;;;1.00;0.90;;;10.10;97.30;;;;;;4997735;28;20260;-90
2023/12/25 14:51:56;;;;;;;1.10;1.00;;;10.10;97.30;;;;;;4993338;28;20683;-89
2023/12/25 14:54:21;;;;;;;4.73;1.20;;;10.10;97.30;;;;;;4993664;28;20640;-88
2023/12/25 14:56:47;;;;;;;2.73;1.47;;;10.10;97.30;;;;;;4994212;28;20467;-89
2023/12/25 14:59:12;;;;;;;1.23;1.10;;;10.10;97.30;;;;;;4994568;28;20687;-88
2023/12/25 15:01:38;;;;;;;1.53;1.10;;;10.10;97.30;;;;;;4996338;28;20198;-90
2023/12/25 15:04:03;;;;;;;2.47;1.40;;;10.10;97.30;;;;;;4993325;28;20259;-89
2023/12/25 15:06:29;;;;;;;0.90;0.80;;;10.10;97.30;;;;;;4996703;28;20174;-89
2023/12/25 15:08:57;;;;;;;1.13;1.03;;;10.10;97.30;;;;;;4996249;28;20198;-89
2023/12/25 15:11:23;;;;;;;1.10;1.00;;;10.10;97.30;;;;;;4992702;28;20194;-88
2023/12/25 15:13:48;;;;;;;1.00;0.90;;;10.10;97.30;;;;;;4997665;28;20456;-89
2023/12/25 15:16:14;;;;;;;0.87;0.77;;;10.00;97.30;;;;;;4992783;28;20660;-89
2023/12/25 15:18:40;;;;;;;1.00;0.90;;;10.00;97.30;;;;;;4992658;28;20193;-90
2023/12/25 15:21:05;;;;;;;0.97;0.87;;;10.00;97.30;;;;;;4994475;28;20633;-90
2023/12/25 15:23:31;;;;;;;1.23;1.20;;;10.00;97.30;;;;;;4993214;28;20190;-89
2023/12/25 15:25:56;;;;;;;1.10;1.03;;;10.00;97.30;;;;;;4991271;28;20178;-89
2023/12/25 15:28:22;;;;;;;2.03;1.93;;;10.00;97.30;;;;;;4992773;28;20221;-89
2023/12/25 15:30:48;;;;;;;0.90;0.80;;;10.00;97.30;;;;;;4992675;28;20664;-89
2023/12/25 15:33:14;;;;;;;2.13;1.97;;;9.90;97.30;;;;;;4993095;28;20224;-89
2023/12/25 15:35:40;;;;;;;1.13;1.03;;;9.90;97.30;;;;;;4992476;28;20433;-89
2023/12/25 15:38:06;;;;;;;0.90;0.80;;;9.90;97.30;;;;;;4992547;28;20440;-91
2023/12/25 15:40:35;;;;;;;2.50;1.70;;;9.90;97.30;;;;;;4993341;28;20197;-90
2023/12/25 15:43:01;;;;;;;1.03;1.00;;;9.90;97.30;;;;;;4993039;28;20460;-90
2023/12/25 15:45:26;;;;;;;1.00;0.90;;;9.80;97.30;;;;;;4993785;28;20544;-90
2023/12/25 15:47:52;;;;;;;1.63;1.57;;;9.90;97.30;;;;;;4993664;28;20903;-90
2023/12/25 15:50:18;;;;;;;1.03;0.93;;;9.80;97.30;;;;;;4995956;28;20193;-89
2023/12/25 15:52:44;;;;;;;0.90;0.80;;;9.80;97.30;;;;;;4994217;28;20182;-90
2023/12/25 15:55:10;;;;;;;0.90;0.80;;;9.80;97.30;;;;;;4992686;28;20915;-90
2023/12/25 15:57:36;;;;;;;1.43;1.20;;;9.80;97.30;;;;;;4996902;28;20173;-90
2023/12/25 16:00:02;;;;;;;0.90;0.80;;;9.80;97.30;;;;;;4996517;28;20831;-90
2023/12/25 16:02:27;;;;;;;1.00;0.90;;;9.70;97.30;;;;;;4992212;28;20267;-89
2023/12/25 16:04:53;;;;;;;1.00;0.90;;;9.70;97.30;;;;;;4992511;28;20528;-90
2023/12/25 16:07:18;;;;;;;1.00;0.90;;;9.70;97.30;;;;;;4992522;28;20177;-90
2023/12/25 16:09:44;;;;;;;0.80;0.70;;;9.70;97.30;;;;;;4998016;28;20202;-90
2023/12/25 16:12:10;;;;;;;0.93;0.83;;;9.60;97.30;;;;;;5001865;28;20181;-90
2023/12/25 16:14:35;;;;;;;1.90;1.80;;;9.60;97.30;;;;;;5001173;28;20178;-87
2023/12/25 16:17:02;;;;;;;1.10;1.00;;;9.60;97.30;;;;;;4999882;28;20656;-90
2023/12/25 16:19:27;;;;;;;1.00;0.90;;;9.60;97.30;;;;;;4997379;28;20256;-90
2023/12/25 16:21:53;;;;;;;0.90;0.80;;;9.60;97.30;;;;;;5004394;28;20424;-86
2023/12/25 16:24:18;;;;;;;1.10;1.00;;;9.60;97.30;;;;;;5004871;28;20213;-89
2023/12/25 16:26:44;;;;;;;0.90;0.80;;;9.60;97.30;;;;;;5004726;28;20178;-87
2023/12/25 16:29:10;;;;;;;1.00;0.90;;;9.60;97.30;;;;;;5005091;28;20576;-88
2023/12/25 16:31:36;;;;;;;1.07;0.97;;;9.60;97.30;;;;;;4995939;28;20177;-88
2023/12/25 16:34:02;;;;;;;3.53;2.70;;;9.60;97.30;;;;;;5001692;28;20534;-90
2023/12/25 16:36:31;;;;;;;1.30;1.20;;;9.90;97.30;;;;;;4998386;28;20192;-91
2023/12/25 16:38:57;;;;;;;0.80;0.70;;;9.90;97.30;;;;;;4994658;28;20445;-86
2023/12/25 16:41:22;;;;;;;1.30;1.20;;;9.80;97.30;;;;;;4996629;28;20429;-91
2023/12/25 16:43:48;;;;;;;1.00;0.90;;;9.70;97.30;;;;;;5006817;28;20484;-94
2023/12/25 16:46:13;;;;;;;0.90;0.80;;;9.70;97.30;;;;;;5022220;28;20198;-92
2023/12/25 16:48:39;;;;;;;1.00;0.90;;;9.70;97.30;;;;;;5014751;28;20201;-93
2023/12/25 16:51:04;;;;;;;1.00;0.90;;;9.70;97.30;;;;;;5018713;28;20182;-90
2023/12/25 16:53:30;;;;;;;1.57;1.50;;;9.70;97.30;;;;;;4996165;28;20351;-91
2023/12/25 16:55:55;;;;;;;1.57;1.47;;;9.70;97.30;;;;;;4996839;28;20178;-90
2023/12/25 16:58:21;;;;;;;0.80;0.80;;;9.70;97.30;;;;;;4996332;28;20193;-91
2023/12/25 17:00:46;;;;;;;1.10;1.00;;;9.70;97.30;;;;;;5003199;28;20220;-89
2023/12/25 17:03:13;;;;;;;1.20;1.10;;;9.70;97.30;;;;;;4990920;28;20288;-89
2023/12/25 17:05:38;;;;;;;1.20;1.10;;;9.70;97.30;;;;;;4991435;28;20178;-91
2023/12/25 17:08:04;;;;;;;1.00;0.90;;;9.70;97.30;;;;;;4990115;28;20503;-89
2023/12/25 17:10:29;;;;;;;2.20;1.37;;;9.70;97.30;;;;;;4991002;28;20629;-91
2023/12/25 17:12:55;;;;;;;1.07;0.97;;;9.70;97.30;;;;;;4999097;28;20192;-93
2023/12/25 17:15:20;;;;;;;1.13;1.07;;;9.70;97.30;;;;;;4992043;28;21263;-90
2023/12/25 17:17:46;;;;;;;1.57;1.47;;;9.70;97.30;;;;;;4992424;28;20182;-91
2023/12/25 17:20:12;;;;;;;1.17;1.07;;;9.70;97.30;;;;;;4993951;28;20197;-89
2023/12/25 17:22:37;;;;;;;0.90;0.80;;;9.70;97.30;;;;;;4991953;28;20201;-90
2023/12/25 17:25:03;;;;;;;1.07;0.97;;;9.70;97.30;;;;;;4992311;28;20194;-90
2023/12/25 17:27:29;;;;;;;1.00;0.90;;;9.70;97.30;;;;;;4996917;28;20250;-93
2023/12/25 17:29:54;;;;;;;1.00;0.90;;;9.80;97.30;;;;;;4998655;28;20589;-90
2023/12/25 17:32:20;;;;;;;1.00;0.90;;;9.80;97.30;;;;;;4995263;28;20186;-89
2023/12/25 17:34:46;;;;;;;0.90;0.80;;;9.80;97.30;;;;;;4994618;28;20834;-91
2023/12/25 17:37:12;;;;;;;1.00;0.90;;;9.80;97.30;;;;;;4995134;28;20232;-90
2023/12/25 17:39:38;;;;;;;0.90;0.80;;;9.70;97.30;;;;;;4992743;28;20448;-89
2023/12/25 17:42:03;;;;;;;1.00;0.90;;;9.70;97.30;;;;;;4991180;28;20300;-88
2023/12/25 17:44:29;;;;;;;1.03;0.93;;;9.70;97.30;;;;;;5000975;28;20184;-89
2023/12/25 17:46:55;;;;;;;1.00;0.90;;;9.70;97.30;;;;;;4991172;28;20272;-88
2023/12/25 17:49:20;;;;;;;0.83;0.73;;;9.70;97.30;;;;;;4991359;28;20197;-89